sensor_id;sensor_type;location;lat;lon;timestamp;P1;durP1;ratioP1;P2;durP2;ratioP2
51985;SDS011;38002;53.296;6.600;2023-03-12T00:02:15;5.22;;;2.30;;
51985;SDS011;38002;53.296;6.600;2023-03-12T00:07:16;2.30;;;2.03;;
51985;SDS011;38002;53.296;6.600;2023-03-12T00:12:16;3.50;;;2.30;;
51985;SDS011;38002;53.296;6.600;2023-03-12T00:17:17;4.25;;;2.40;;
51985;SDS011;38002;53.296;6.600;2023-03-12T00:22:17;7.07;;;2.70;;
51985;SDS011;38002;53.296;6.600;2023-03-12T00:27:22;2.55;;;2.10;;
51985;SDS011;38002;53.296;6.600;2023-03-12T00:32:24;7.15;;;3.22;;
51985;SDS011;38002;53.296;6.600;2023-03-12T00:37:24;6.40;;;2.70;;
51985;SDS011;38002;53.296;6.600;2023-03-12T00:42:25;7.60;;;4.25;;
51985;SDS011;38002;53.296;6.600;2023-03-12T00:47:25;5.32;;;2.72;;
51985;SDS011;38002;53.296;6.600;2023-03-12T00:52:25;3.90;;;2.90;;
51985;SDS011;38002;53.296;6.600;2023-03-12T00:57:26;6.72;;;2.90;;
51985;SDS011;38002;53.296;6.600;2023-03-12T01:02:26;2.92;;;2.72;;
51985;SDS011;38002;53.296;6.600;2023-03-12T01:07:27;5.45;;;2.65;;
51985;SDS011;38002;53.296;6.600;2023-03-12T01:12:27;5.13;;;2.53;;
51985;SDS011;38002;53.296;6.600;2023-03-12T01:17:28;2.60;;;2.40;;
51985;SDS011;38002;53.296;6.600;2023-03-12T01:22:28;3.15;;;2.35;;
51985;SDS011;38002;53.296;6.600;2023-03-12T01:27:29;2.50;;;2.28;;
51985;SDS011;38002;53.296;6.600;2023-03-12T01:32:29;3.58;;;1.98;;
51985;SDS011;38002;53.296;6.600;2023-03-12T01:37:30;3.72;;;2.00;;
51985;SDS011;38002;53.296;6.600;2023-03-12T01:42:31;3.90;;;2.13;;
51985;SDS011;38002;53.296;6.600;2023-03-12T01:47:31;7.25;;;2.70;;
51985;SDS011;38002;53.296;6.600;2023-03-12T01:52:35;2.72;;;2.50;;
51985;SDS011;38002;53.296;6.600;2023-03-12T01:57:42;4.55;;;3.47;;
51985;SDS011;38002;53.296;6.600;2023-03-12T02:02:48;6.50;;;2.90;;
51985;SDS011;38002;53.296;6.600;2023-03-12T02:07:50;3.70;;;2.85;;
51985;SDS011;38002;53.296;6.600;2023-03-12T02:12:50;3.25;;;2.60;;
51985;SDS011;38002;53.296;6.600;2023-03-12T02:17:51;5.90;;;2.78;;
51985;SDS011;38002;53.296;6.600;2023-03-12T02:22:56;2.83;;;2.03;;
51985;SDS011;38002;53.296;6.600;2023-03-12T02:28:05;3.25;;;2.15;;
51985;SDS011;38002;53.296;6.600;2023-03-12T02:33:08;12.27;;;3.97;;
51985;SDS011;38002;53.296;6.600;2023-03-12T02:38:30;2.90;;;2.60;;
51985;SDS011;38002;53.296;6.600;2023-03-12T02:43:39;4.80;;;2.47;;
51985;SDS011;38002;53.296;6.600;2023-03-12T02:48:43;4.85;;;2.55;;
51985;SDS011;38002;53.296;6.600;2023-03-12T02:53:44;4.80;;;2.90;;
51985;SDS011;38002;53.296;6.600;2023-03-12T02:58:45;7.37;;;2.87;;
51985;SDS011;38002;53.296;6.600;2023-03-12T03:03:46;2.50;;;2.30;;
51985;SDS011;38002;53.296;6.600;2023-03-12T03:08:46;4.40;;;2.35;;
51985;SDS011;38002;53.296;6.600;2023-03-12T03:13:47;5.47;;;2.50;;
51985;SDS011;38002;53.296;6.600;2023-03-12T03:18:47;8.43;;;2.80;;
51985;SDS011;38002;53.296;6.600;2023-03-12T03:23:48;5.00;;;2.80;;
51985;SDS011;38002;53.296;6.600;2023-03-12T03:28:49;3.88;;;2.83;;
51985;SDS011;38002;53.296;6.600;2023-03-12T03:33:50;4.60;;;2.50;;
51985;SDS011;38002;53.296;6.600;2023-03-12T03:38:50;4.00;;;3.40;;
51985;SDS011;38002;53.296;6.600;2023-03-12T03:43:54;3.13;;;2.80;;
51985;SDS011;38002;53.296;6.600;2023-03-12T03:48:56;6.82;;;3.30;;
51985;SDS011;38002;53.296;6.600;2023-03-12T03:53:57;5.57;;;2.55;;
51985;SDS011;38002;53.296;6.600;2023-03-12T03:58:59;6.38;;;3.28;;
51985;SDS011;38002;53.296;6.600;2023-03-12T04:04:01;11.90;;;4.38;;
51985;SDS011;38002;53.296;6.600;2023-03-12T04:09:02;3.60;;;3.23;;
51985;SDS011;38002;53.296;6.600;2023-03-12T04:14:03;3.47;;;2.47;;
51985;SDS011;38002;53.296;6.600;2023-03-12T04:19:03;3.58;;;2.25;;
51985;SDS011;38002;53.296;6.600;2023-03-12T04:24:05;4.07;;;2.55;;
51985;SDS011;38002;53.296;6.600;2023-03-12T04:34:07;4.00;;;2.97;;
51985;SDS011;38002;53.296;6.600;2023-03-12T04:39:08;3.17;;;2.88;;
51985;SDS011;38002;53.296;6.600;2023-03-12T04:44:08;3.60;;;2.70;;
51985;SDS011;38002;53.296;6.600;2023-03-12T04:49:09;3.70;;;2.67;;
51985;SDS011;38002;53.296;6.600;2023-03-12T04:54:09;4.03;;;3.05;;
51985;SDS011;38002;53.296;6.600;2023-03-12T04:59:10;4.47;;;3.08;;
51985;SDS011;38002;53.296;6.600;2023-03-12T05:04:10;2.97;;;2.63;;
51985;SDS011;38002;53.296;6.600;2023-03-12T05:09:11;3.28;;;2.70;;
51985;SDS011;38002;53.296;6.600;2023-03-12T05:14:11;7.13;;;3.28;;
51985;SDS011;38002;53.296;6.600;2023-03-12T05:19:11;6.15;;;3.00;;
51985;SDS011;38002;53.296;6.600;2023-03-12T05:24:12;3.35;;;2.88;;
51985;SDS011;38002;53.296;6.600;2023-03-12T05:29:12;5.25;;;3.25;;
51985;SDS011;38002;53.296;6.600;2023-03-12T05:34:13;5.38;;;2.55;;
51985;SDS011;38002;53.296;6.600;2023-03-12T05:39:13;4.03;;;2.70;;
51985;SDS011;38002;53.296;6.600;2023-03-12T05:44:14;4.38;;;3.15;;
51985;SDS011;38002;53.296;6.600;2023-03-12T05:49:15;8.57;;;2.75;;
51985;SDS011;38002;53.296;6.600;2023-03-12T05:54:15;3.60;;;3.25;;
51985;SDS011;38002;53.296;6.600;2023-03-12T05:59:16;4.47;;;3.38;;
51985;SDS011;38002;53.296;6.600;2023-03-12T06:04:17;3.30;;;3.00;;
51985;SDS011;38002;53.296;6.600;2023-03-12T06:09:17;5.90;;;3.83;;
51985;SDS011;38002;53.296;6.600;2023-03-12T06:14:17;6.53;;;4.15;;
51985;SDS011;38002;53.296;6.600;2023-03-12T06:19:18;6.50;;;3.40;;
51985;SDS011;38002;53.296;6.600;2023-03-12T06:24:18;4.38;;;3.05;;
51985;SDS011;38002;53.296;6.600;2023-03-12T06:29:19;3.85;;;3.13;;
51985;SDS011;38002;53.296;6.600;2023-03-12T06:34:19;6.03;;;4.00;;
51985;SDS011;38002;53.296;6.600;2023-03-12T06:39:20;7.45;;;3.65;;
51985;SDS011;38002;53.296;6.600;2023-03-12T06:44:20;5.05;;;3.38;;
51985;SDS011;38002;53.296;6.600;2023-03-12T06:49:21;5.57;;;3.75;;
51985;SDS011;38002;53.296;6.600;2023-03-12T06:54:22;6.53;;;3.27;;
51985;SDS011;38002;53.296;6.600;2023-03-12T06:59:22;6.20;;;4.05;;
51985;SDS011;38002;53.296;6.600;2023-03-12T07:04:23;10.48;;;3.58;;
51985;SDS011;38002;53.296;6.600;2023-03-12T07:09:23;7.10;;;3.72;;
51985;SDS011;38002;53.296;6.600;2023-03-12T07:14:24;7.05;;;4.68;;
51985;SDS011;38002;53.296;6.600;2023-03-12T07:19:24;5.75;;;4.32;;
51985;SDS011;38002;53.296;6.600;2023-03-12T07:24:25;9.23;;;4.47;;
51985;SDS011;38002;53.296;6.600;2023-03-12T07:29:25;11.32;;;4.88;;
51985;SDS011;38002;53.296;6.600;2023-03-12T07:34:26;9.43;;;4.72;;
51985;SDS011;38002;53.296;6.600;2023-03-12T07:39:26;7.13;;;4.88;;
51985;SDS011;38002;53.296;6.600;2023-03-12T07:44:27;10.52;;;5.45;;
51985;SDS011;38002;53.296;6.600;2023-03-12T07:49:27;8.30;;;6.40;;
51985;SDS011;38002;53.296;6.600;2023-03-12T07:54:28;8.18;;;5.65;;
51985;SDS011;38002;53.296;6.600;2023-03-12T07:59:29;12.13;;;6.43;;
51985;SDS011;38002;53.296;6.600;2023-03-12T08:04:30;10.32;;;6.13;;
51985;SDS011;38002;53.296;6.600;2023-03-12T08:09:30;11.07;;;6.57;;
51985;SDS011;38002;53.296;6.600;2023-03-12T08:14:32;8.63;;;6.25;;
51985;SDS011;38002;53.296;6.600;2023-03-12T08:19:33;13.50;;;7.03;;
51985;SDS011;38002;53.296;6.600;2023-03-12T08:24:33;8.95;;;6.00;;
51985;SDS011;38002;53.296;6.600;2023-03-12T08:29:34;8.95;;;6.63;;
51985;SDS011;38002;53.296;6.600;2023-03-12T08:34:35;15.23;;;7.55;;
51985;SDS011;38002;53.296;6.600;2023-03-12T08:39:35;12.50;;;8.00;;
51985;SDS011;38002;53.296;6.600;2023-03-12T08:44:36;15.23;;;8.57;;
51985;SDS011;38002;53.296;6.600;2023-03-12T08:49:36;12.77;;;7.93;;
51985;SDS011;38002;53.296;6.600;2023-03-12T08:54:37;10.05;;;7.30;;
51985;SDS011;38002;53.296;6.600;2023-03-12T08:59:37;17.45;;;7.80;;
51985;SDS011;38002;53.296;6.600;2023-03-12T09:04:38;9.88;;;7.80;;
51985;SDS011;38002;53.296;6.600;2023-03-12T09:09:38;15.82;;;9.48;;
51985;SDS011;38002;53.296;6.600;2023-03-12T09:14:39;14.52;;;8.40;;
51985;SDS011;38002;53.296;6.600;2023-03-12T09:19:39;9.43;;;7.13;;
51985;SDS011;38002;53.296;6.600;2023-03-12T09:24:40;16.25;;;7.75;;
51985;SDS011;38002;53.296;6.600;2023-03-12T09:29:40;9.40;;;7.63;;
51985;SDS011;38002;53.296;6.600;2023-03-12T09:34:41;10.32;;;7.38;;
51985;SDS011;38002;53.296;6.600;2023-03-12T09:39:41;12.45;;;8.68;;
51985;SDS011;38002;53.296;6.600;2023-03-12T09:44:42;13.20;;;6.97;;
51985;SDS011;38002;53.296;6.600;2023-03-12T09:49:47;16.35;;;9.38;;
51985;SDS011;38002;53.296;6.600;2023-03-12T09:55:05;15.07;;;8.27;;
51985;SDS011;38002;53.296;6.600;2023-03-12T10:00:07;5.45;;;4.70;;
51985;SDS011;38002;53.296;6.600;2023-03-12T10:05:16;9.70;;;7.90;;
51985;SDS011;38002;53.296;6.600;2023-03-12T10:16:13;10.68;;;7.85;;
51985;SDS011;38002;53.296;6.600;2023-03-12T10:21:41;11.60;;;8.25;;
51985;SDS011;38002;53.296;6.600;2023-03-12T10:26:53;7.38;;;6.00;;
51985;SDS011;38002;53.296;6.600;2023-03-12T10:32:01;9.50;;;7.30;;
51985;SDS011;38002;53.296;6.600;2023-03-12T10:42:36;4.07;;;3.17;;
51985;SDS011;38002;53.296;6.600;2023-03-12T10:47:39;10.82;;;7.15;;
51985;SDS011;38002;53.296;6.600;2023-03-12T10:52:41;7.93;;;7.13;;
51985;SDS011;38002;53.296;6.600;2023-03-12T10:57:42;10.30;;;8.77;;
51985;SDS011;38002;53.296;6.600;2023-03-12T11:02:43;8.60;;;7.15;;
51985;SDS011;38002;53.296;6.600;2023-03-12T11:07:45;6.90;;;6.13;;
51985;SDS011;38002;53.296;6.600;2023-03-12T11:13:02;9.40;;;8.25;;
51985;SDS011;38002;53.296;6.600;2023-03-12T11:18:16;10.60;;;7.97;;
51985;SDS011;38002;53.296;6.600;2023-03-12T11:23:27;11.20;;;8.57;;
51985;SDS011;38002;53.296;6.600;2023-03-12T11:28:36;13.88;;;7.90;;
51985;SDS011;38002;53.296;6.600;2023-03-12T11:33:41;14.13;;;11.00;;
51985;SDS011;38002;53.296;6.600;2023-03-12T11:44:16;12.63;;;9.45;;
51985;SDS011;38002;53.296;6.600;2023-03-12T12:00:20;14.57;;;10.27;;
51985;SDS011;38002;53.296;6.600;2023-03-12T12:27:23;19.88;;;13.38;;
51985;SDS011;38002;53.296;6.600;2023-03-12T12:42:55;17.30;;;10.57;;
51985;SDS011;38002;53.296;6.600;2023-03-12T12:48:16;23.55;;;12.32;;
51985;SDS011;38002;53.296;6.600;2023-03-12T12:53:41;20.10;;;10.27;;
51985;SDS011;38002;53.296;6.600;2023-03-12T13:04:10;14.48;;;7.47;;
51985;SDS011;38002;53.296;6.600;2023-03-12T13:09:19;16.27;;;8.70;;
51985;SDS011;38002;53.296;6.600;2023-03-12T13:14:34;16.40;;;9.40;;
51985;SDS011;38002;53.296;6.600;2023-03-12T13:19:38;21.92;;;9.98;;
51985;SDS011;38002;53.296;6.600;2023-03-12T13:36:04;15.40;;;8.70;;
51985;SDS011;38002;53.296;6.600;2023-03-12T13:41:05;23.98;;;10.15;;
51985;SDS011;38002;53.296;6.600;2023-03-12T13:46:11;28.85;;;10.98;;
51985;SDS011;38002;53.296;6.600;2023-03-12T13:51:26;30.58;;;11.77;;
51985;SDS011;38002;53.296;6.600;2023-03-12T13:56:28;17.73;;;8.38;;
51985;SDS011;38002;53.296;6.600;2023-03-12T14:01:34;34.05;;;9.85;;
51985;SDS011;38002;53.296;6.600;2023-03-12T14:07:02;36.58;;;7.85;;
51985;SDS011;38002;53.296;6.600;2023-03-12T14:12:26;30.92;;;7.50;;
51985;SDS011;38002;53.296;6.600;2023-03-12T14:17:53;36.90;;;8.35;;
51985;SDS011;38002;53.296;6.600;2023-03-12T14:22:59;29.20;;;7.20;;
51985;SDS011;38002;53.296;6.600;2023-03-12T14:28:12;28.05;;;5.35;;
51985;SDS011;38002;53.296;6.600;2023-03-12T14:33:19;37.35;;;6.47;;
51985;SDS011;38002;53.296;6.600;2023-03-12T14:38:25;25.73;;;6.30;;
51985;SDS011;38002;53.296;6.600;2023-03-12T14:43:32;40.45;;;6.10;;
51985;SDS011;38002;53.296;6.600;2023-03-12T14:48:34;29.65;;;5.75;;
51985;SDS011;38002;53.296;6.600;2023-03-12T14:53:36;29.25;;;6.00;;
51985;SDS011;38002;53.296;6.600;2023-03-12T14:58:44;36.13;;;6.00;;
51985;SDS011;38002;53.296;6.600;2023-03-12T15:03:48;21.45;;;4.70;;
51985;SDS011;38002;53.296;6.600;2023-03-12T15:08:51;22.85;;;5.03;;
51985;SDS011;38002;53.296;6.600;2023-03-12T15:13:52;22.58;;;4.82;;
51985;SDS011;38002;53.296;6.600;2023-03-12T15:18:55;26.38;;;4.90;;
51985;SDS011;38002;53.296;6.600;2023-03-12T15:23:56;25.17;;;4.57;;
51985;SDS011;38002;53.296;6.600;2023-03-12T15:28:58;32.70;;;5.72;;
51985;SDS011;38002;53.296;6.600;2023-03-12T15:34:00;29.20;;;4.85;;
51985;SDS011;38002;53.296;6.600;2023-03-12T15:39:12;28.80;;;4.35;;
51985;SDS011;38002;53.296;6.600;2023-03-12T15:44:33;25.27;;;4.40;;
51985;SDS011;38002;53.296;6.600;2023-03-12T15:49:49;23.25;;;4.57;;
51985;SDS011;38002;53.296;6.600;2023-03-12T16:05:13;32.03;;;5.18;;
51985;SDS011;38002;53.296;6.600;2023-03-12T16:10:14;30.77;;;5.00;;
51985;SDS011;38002;53.296;6.600;2023-03-12T16:15:21;27.60;;;4.72;;
51985;SDS011;38002;53.296;6.600;2023-03-12T16:20:36;30.75;;;4.93;;
51985;SDS011;38002;53.296;6.600;2023-03-12T16:25:37;32.15;;;4.78;;
51985;SDS011;38002;53.296;6.600;2023-03-12T16:30:38;32.00;;;5.50;;
51985;SDS011;38002;53.296;6.600;2023-03-12T16:35:39;30.88;;;4.90;;
51985;SDS011;38002;53.296;6.600;2023-03-12T16:40:43;26.10;;;4.15;;
51985;SDS011;38002;53.296;6.600;2023-03-12T16:45:46;26.48;;;4.50;;
51985;SDS011;38002;53.296;6.600;2023-03-12T16:50:49;31.33;;;4.85;;
51985;SDS011;38002;53.296;6.600;2023-03-12T16:55:53;31.77;;;4.97;;
51985;SDS011;38002;53.296;6.600;2023-03-12T17:00:58;27.50;;;4.68;;
51985;SDS011;38002;53.296;6.600;2023-03-12T17:05:58;30.80;;;6.65;;
51985;SDS011;38002;53.296;6.600;2023-03-12T17:10:59;32.88;;;4.90;;
51985;SDS011;38002;53.296;6.600;2023-03-12T17:15:59;30.33;;;4.75;;
51985;SDS011;38002;53.296;6.600;2023-03-12T17:21:00;23.75;;;4.13;;
51985;SDS011;38002;53.296;6.600;2023-03-12T17:26:00;31.80;;;4.65;;
51985;SDS011;38002;53.296;6.600;2023-03-12T17:31:01;41.00;;;5.75;;
51985;SDS011;38002;53.296;6.600;2023-03-12T17:36:03;16.33;;;3.35;;
51985;SDS011;38002;53.296;6.600;2023-03-12T17:41:05;30.42;;;4.53;;
51985;SDS011;38002;53.296;6.600;2023-03-12T17:46:07;20.10;;;4.40;;
51985;SDS011;38002;53.296;6.600;2023-03-12T17:56:10;35.80;;;4.68;;
51985;SDS011;38002;53.296;6.600;2023-03-12T18:01:11;31.37;;;5.70;;
51985;SDS011;38002;53.296;6.600;2023-03-12T18:06:12;27.10;;;5.00;;
51985;SDS011;38002;53.296;6.600;2023-03-12T18:11:13;34.60;;;6.53;;
51985;SDS011;38002;53.296;6.600;2023-03-12T18:16:14;21.55;;;3.80;;
51985;SDS011;38002;53.296;6.600;2023-03-12T18:21:15;37.08;;;4.88;;
51985;SDS011;38002;53.296;6.600;2023-03-12T18:26:15;25.25;;;4.70;;
51985;SDS011;38002;53.296;6.600;2023-03-12T18:31:16;38.28;;;5.80;;
51985;SDS011;38002;53.296;6.600;2023-03-12T18:36:16;25.88;;;4.40;;
51985;SDS011;38002;53.296;6.600;2023-03-12T18:41:17;18.70;;;4.68;;
51985;SDS011;38002;53.296;6.600;2023-03-12T18:46:17;26.98;;;4.25;;
51985;SDS011;38002;53.296;6.600;2023-03-12T18:51:18;24.25;;;4.57;;
51985;SDS011;38002;53.296;6.600;2023-03-12T18:56:19;28.48;;;3.97;;
51985;SDS011;38002;53.296;6.600;2023-03-12T19:01:19;35.92;;;6.88;;
51985;SDS011;38002;53.296;6.600;2023-03-12T19:06:20;31.33;;;4.85;;
51985;SDS011;38002;53.296;6.600;2023-03-12T19:11:20;28.67;;;5.50;;
51985;SDS011;38002;53.296;6.600;2023-03-12T19:16:21;32.13;;;4.78;;
51985;SDS011;38002;53.296;6.600;2023-03-12T19:21:22;24.50;;;4.70;;
51985;SDS011;38002;53.296;6.600;2023-03-12T19:26:22;30.10;;;5.35;;
51985;SDS011;38002;53.296;6.600;2023-03-12T19:31:23;26.77;;;4.68;;
51985;SDS011;38002;53.296;6.600;2023-03-12T19:36:24;14.50;;;4.07;;
51985;SDS011;38002;53.296;6.600;2023-03-12T19:41:24;25.83;;;4.38;;
51985;SDS011;38002;53.296;6.600;2023-03-12T19:46:25;35.72;;;4.75;;
51985;SDS011;38002;53.296;6.600;2023-03-12T19:51:25;42.17;;;5.57;;
51985;SDS011;38002;53.296;6.600;2023-03-12T19:56:26;39.83;;;6.95;;
51985;SDS011;38002;53.296;6.600;2023-03-12T20:01:26;37.45;;;5.00;;
51985;SDS011;38002;53.296;6.600;2023-03-12T20:06:27;21.17;;;5.40;;
51985;SDS011;38002;53.296;6.600;2023-03-12T20:11:27;34.38;;;5.13;;
51985;SDS011;38002;53.296;6.600;2023-03-12T20:16:28;31.70;;;5.50;;
51985;SDS011;38002;53.296;6.600;2023-03-12T20:21:28;29.55;;;4.90;;
51985;SDS011;38002;53.296;6.600;2023-03-12T20:26:29;25.67;;;3.88;;
51985;SDS011;38002;53.296;6.600;2023-03-12T20:31:30;32.30;;;5.53;;
51985;SDS011;38002;53.296;6.600;2023-03-12T20:36:31;34.08;;;5.18;;
51985;SDS011;38002;53.296;6.600;2023-03-12T20:41:31;28.40;;;4.43;;
51985;SDS011;38002;53.296;6.600;2023-03-12T20:46:32;28.77;;;5.35;;
51985;SDS011;38002;53.296;6.600;2023-03-12T20:51:33;35.47;;;5.57;;
51985;SDS011;38002;53.296;6.600;2023-03-12T20:56:33;43.00;;;5.13;;
51985;SDS011;38002;53.296;6.600;2023-03-12T21:01:34;40.33;;;6.15;;
51985;SDS011;38002;53.296;6.600;2023-03-12T21:06:34;29.98;;;4.32;;
51985;SDS011;38002;53.296;6.600;2023-03-12T21:11:34;27.90;;;4.70;;
51985;SDS011;38002;53.296;6.600;2023-03-12T21:16:35;27.33;;;5.82;;
51985;SDS011;38002;53.296;6.600;2023-03-12T21:21:35;23.85;;;4.35;;
51985;SDS011;38002;53.296;6.600;2023-03-12T21:26:37;26.67;;;4.68;;
51985;SDS011;38002;53.296;6.600;2023-03-12T21:31:37;30.38;;;4.80;;
51985;SDS011;38002;53.296;6.600;2023-03-12T21:36:37;22.00;;;4.10;;
51985;SDS011;38002;53.296;6.600;2023-03-12T21:41:38;21.75;;;3.38;;
51985;SDS011;38002;53.296;6.600;2023-03-12T21:46:38;23.45;;;5.38;;
51985;SDS011;38002;53.296;6.600;2023-03-12T21:51:39;14.55;;;3.75;;
51985;SDS011;38002;53.296;6.600;2023-03-12T21:56:39;16.05;;;3.38;;
51985;SDS011;38002;53.296;6.600;2023-03-12T22:01:40;16.20;;;2.70;;
51985;SDS011;38002;53.296;6.600;2023-03-12T22:06:41;19.92;;;3.67;;
51985;SDS011;38002;53.296;6.600;2023-03-12T22:11:41;15.10;;;3.28;;
51985;SDS011;38002;53.296;6.600;2023-03-12T22:16:42;21.45;;;2.88;;
51985;SDS011;38002;53.296;6.600;2023-03-12T22:21:43;19.35;;;3.30;;
51985;SDS011;38002;53.296;6.600;2023-03-12T22:26:44;20.10;;;3.20;;
51985;SDS011;38002;53.296;6.600;2023-03-12T22:31:45;18.58;;;3.35;;
51985;SDS011;38002;53.296;6.600;2023-03-12T22:36:45;20.13;;;3.60;;
51985;SDS011;38002;53.296;6.600;2023-03-12T22:41:47;19.75;;;4.85;;
51985;SDS011;38002;53.296;6.600;2023-03-12T22:46:52;23.15;;;3.35;;
51985;SDS011;38002;53.296;6.600;2023-03-12T22:51:52;19.60;;;3.05;;
51985;SDS011;38002;53.296;6.600;2023-03-12T22:56:53;21.42;;;3.55;;
51985;SDS011;38002;53.296;6.600;2023-03-12T23:01:53;19.70;;;3.42;;
51985;SDS011;38002;53.296;6.600;2023-03-12T23:06:54;21.85;;;3.50;;
51985;SDS011;38002;53.296;6.600;2023-03-12T23:11:54;23.30;;;3.05;;
51985;SDS011;38002;53.296;6.600;2023-03-12T23:16:55;22.30;;;2.53;;
51985;SDS011;38002;53.296;6.600;2023-03-12T23:21:56;23.33;;;3.58;;
51985;SDS011;38002;53.296;6.600;2023-03-12T23:26:56;19.60;;;4.13;;
51985;SDS011;38002;53.296;6.600;2023-03-12T23:31:57;20.88;;;5.13;;
51985;SDS011;38002;53.296;6.600;2023-03-12T23:36:58;24.15;;;4.80;;
51985;SDS011;38002;53.296;6.600;2023-03-12T23:41:58;28.17;;;5.65;;
51985;SDS011;38002;53.296;6.600;2023-03-12T23:46:59;25.60;;;4.40;;
51985;SDS011;38002;53.296;6.600;2023-03-12T23:51:59;16.52;;;3.53;;
51985;SDS011;38002;53.296;6.600;2023-03-12T23:56:59;15.23;;;3.65;;
